Campo Belo, Brazil
Current Conditions -  °F | °C
As of 12:00 PM on Saturday 25 Oct 2014 (Local Time) from SBBQ Reporting Station
Broken Clouds Broken Clouds  
Wind Chill: 68°   Ceiling: 4900
Heat Index: 68°   Visibility: 6mi
Dew Point: 59°   Wind: 5mph
Humidity: 73%   Direction: 200°SSW
Pressure: 30.15"   Gusts: NA
Location:  20.9°S, 45.28°W
Report Text: SBBQ 251400Z 20004KT 9999 BKN049 20/15 Q1021
Loading
Personal Weather Stations






























Interactive Weather Map
Tropical Storm Tracking
New forecast layout! Learn more

10-Day Weather Forecast

Advertisements
Track Severe Weather on mobile